Torm Horizon — OYNM2 — position and weather

sailwx.info

Track history (hours):
 
Tides and Currents Weather Stations Pressure Air Temp Water Temp Dewpoint Dewpoint Depression Visibility Wind Speed Wind Dir Waves Ship Positions

Torm Horizon

Last reported at 2014-Aug-23 03:31 UTC. Time now 2014-Aug-23 13:23 UTC.
Position N 51°25' E 002°39'.

Length 183 m; draft 11 m.

Type: Ship. MMSI: 220566000.

Date/timePositionNaut miles runAvg speedWind from/ knotsBaromVisibWave heightAir tempDewpointWater temp
2014-Aug-23 03:31N 51°25' E 002°39'0 0.0
2014-Aug-23 02:31N 51°25' E 002°39'0 0.0
2014-Aug-23 01:28N 51°25' E 002°40'0 0.0
2014-Aug-23 00:31N 51°25' E 002°40'0 0.0
2014-Aug-22 23:31N 51°25' E 002°40'0 0.0
2014-Aug-22 22:31N 51°25' E 002°39'0 0.0
2014-Aug-22 21:22N 51°25' E 002°40'0 0.2
2014-Aug-22 20:31N 51°25' E 002°39'0 0.0
2014-Aug-22 19:31N 51°25' E 002°39'0 0.0
2014-Aug-22 18:31N 51°25' E 002°39'0 0.0
2014-Aug-22 17:31N 51°25' E 002°39'0 0.0
2014-Aug-22 16:28N 51°25' E 002°39'0 0.2
2014-Aug-22 15:31N 51°25' E 002°40'0 0.1
2014-Aug-22 14:28N 51°25' E 002°40'0 0.0
2014-Aug-22 13:31N 51°25' E 002°40'0 0.0
2014-Aug-22 12:31N 51°25' E 002°40'0 0.0
2014-Aug-22 11:31N 51°25' E 002°40'0 0.0
2014-Aug-22 10:25N 51°25' E 002°40'0 0.0
2014-Aug-22 09:31N 51°25' E 002°40'0 0.0
2014-Aug-22 08:25N 51°25' E 002°40'0 0.1
2014-Aug-22 07:28N 51°25' E 002°39'0 0.1
2014-Aug-22 06:31N 51°24' E 002°39'0 0.1
2014-Aug-22 05:22N 51°25' E 002°39'0 0.1
2014-Aug-22 04:31N 51°25' E 002°40'0 0.1
2014-Aug-22 03:31N 51°25' E 002°40'0 0.0
2014-Aug-22 02:31N 51°25' E 002°40'0 0.0
2014-Aug-22 01:31N 51°25' E 002°40'0 0.0
2014-Aug-22 00:25N 51°25' E 002°40'0 0.0
2014-Aug-21 23:31N 51°25' E 002°40'0 0.0
2014-Aug-21 22:31N 51°25' E 002°40'0 0.0
2014-Aug-21 21:31N 51°25' E 002°40'0 0.0
2014-Aug-21 20:31N 51°25' E 002°40'0 0.0
2014-Aug-21 19:33N 51°25' E 002°40'0 0.0
2014-Aug-21 18:34N 51°25' E 002°40'0 0.0
2014-Aug-21 17:18N 51°25' E 002°40'0 0.0
2014-Aug-21 16:34N 51°25' E 002°40'0 0.1
2014-Aug-21 15:33N 51°25' E 002°40'0 0.0
2014-Aug-21 14:27N 51°25' E 002°40'0 0.0
2014-Aug-21 13:33N 51°25' E 002°40'0 0.0
2014-Aug-21 12:33N 51°25' E 002°40'0 0.0
2014-Aug-21 11:30N 51°25' E 002°40'0 0.0
2014-Aug-21 10:33N 51°25' E 002°40'0 0.0
2014-Aug-21 09:33N 51°25' E 002°40'0 0.0
2014-Aug-21 08:30N 51°25' E 002°40'0 0.1
2014-Aug-21 07:30N 51°24' E 002°40'0 0.1
2014-Aug-21 06:33N 51°24' E 002°39'0 0.1
2014-Aug-21 05:32N 51°25' E 002°39'8 7.5
2014-Aug-21 04:30N 51°22' E 002°28'9 9.1
2014-Aug-21 03:31N 51°18' E 002°14'1010.6
2014-Aug-21 02:33N 51°23' E 001°60'1110.6
2014-Aug-21 01:33N 51°32' E 002°07'1211.8
2014-Aug-21 00:33N 51°42' E 002°19'  
2014-Aug-15 18:23N 58°36' E 004°55'1011.6
2014-Aug-15 17:33N 58°29' E 005°08'1211.4
2014-Aug-15 16:32N 58°21' E 005°25'1111.2
2014-Aug-15 15:33N 58°14' E 005°40'1111.2
2014-Aug-15 14:33N 58°06' E 005°56'13312.1
2014-Aug-15 03:33N 57°50' E 010°06'1312.8
2014-Aug-15 02:33N 57°51' E 010°30'1111.0
2014-Aug-15 01:33N 57°43' E 010°46'3 1.1
2014-Aug-14 22:32N 57°41' E 010°41'0 0.0
2014-Aug-14 21:32N 57°41' E 010°41'0 0.0
2014-Aug-14 18:32N 57°41' E 010°41'3 2.6
2014-Aug-14 17:33N 57°40' E 010°45'1313.5
2014-Aug-14 16:33N 57°34' E 011°07'1313.1
2014-Aug-14 15:33N 57°26' E 011°27'1414.1
2014-Aug-14 14:33N 57°13' E 011°36'1414.2
2014-Aug-14 13:34N 56°59' E 011°45'1414.1
2014-Aug-14 12:33N 56°46' E 011°53'1414.0
2014-Aug-14 11:33N 56°33' E 011°59'1313.2
2014-Aug-14 10:33N 56°22' E 012°12'1313.3
2014-Aug-14 09:33N 56°11' E 012°27'1110.9
2014-Aug-14 08:33N 56°03' E 012°40'1212.4
2014-Aug-14 07:33N 55°50' E 012°42'1312.8
2014-Aug-14 06:33N 55°38' E 012°42'10 9.9
2014-Aug-14 05:34N 55°28' E 012°42'1111.4
2014-Aug-14 04:33N 55°17' E 012°48'1313.3
2014-Aug-14 03:33N 55°15' E 013°11'1613.5
2014-Aug-14 02:20N 55°14' E 013°40'2212.2
2014-Aug-14 00:30N 55°12' E 014°19'1111.3
2014-Aug-13 23:33N 55°15' E 014°36'1110.9
2014-Aug-13 22:33N 55°18' E 014°55'1010.0
2014-Aug-13 21:34N 55°16' E 015°13'1413.8
2014-Aug-13 20:33N 55°16' E 015°37'6913.8
2014-Aug-13 15:33N 55°13' E 017°38'1313.3
2014-Aug-13 14:33N 55°11' E 018°01'1211.6
2014-Aug-13 13:33N 55°07' E 018°20'1212.0
2014-Aug-13 12:33N 54°60' E 018°36'1212.0
2014-Aug-13 11:33N 54°52' E 018°52'1010.2
2014-Aug-13 10:33N 54°42' E 018°58'1111.5
2014-Aug-13 09:33N 54°32' E 018°49'4 4.5
2014-Aug-13 08:33N 54°31' E 018°42'0 0.0
2014-Aug-13 07:33N 54°31' E 018°42'0 0.0
2014-Aug-13 06:33N 54°31' E 018°42'0 0.1
2014-Aug-13 05:33N 54°31' E 018°42'0 0.0
2014-Aug-13 04:33N 54°31' E 018°42'0 0.0
2014-Aug-13 03:33N 54°31' E 018°42'  
Track history (hours):
 
Tides and Currents Weather Stations Pressure Air Temp Water Temp Dewpoint Dewpoint Depression Visibility Wind Speed Wind Dir Waves Ship Positions

Torm Horizon

Last reported at 2014-Aug-23 03:31 UTC. Time now 2014-Aug-23 13:23 UTC.
Position N 51°25' E 002°39'.

Length 183 m; draft 11 m.

Type: Ship. MMSI: 220566000.

Date/timePositionNaut miles runAvg speedWind from/ knotsBaromVisibWave heightAir tempDewpointWater temp
2014-Aug-23 03:31N 51°25' E 002°39'0 0.0
2014-Aug-23 02:31N 51°25' E 002°39'0 0.0
2014-Aug-23 01:28N 51°25' E 002°40'0 0.0
2014-Aug-23 00:31N 51°25' E 002°40'0 0.0
2014-Aug-22 23:31N 51°25' E 002°40'0 0.0
2014-Aug-22 22:31N 51°25' E 002°39'0 0.0
2014-Aug-22 21:22N 51°25' E 002°40'0 0.2
2014-Aug-22 20:31N 51°25' E 002°39'0 0.0
2014-Aug-22 19:31N 51°25' E 002°39'0 0.0
2014-Aug-22 18:31N 51°25' E 002°39'0 0.0
2014-Aug-22 17:31N 51°25' E 002°39'0 0.0
2014-Aug-22 16:28N 51°25' E 002°39'0 0.2
2014-Aug-22 15:31N 51°25' E 002°40'0 0.1
2014-Aug-22 14:28N 51°25' E 002°40'0 0.0
2014-Aug-22 13:31N 51°25' E 002°40'0 0.0
2014-Aug-22 12:31N 51°25' E 002°40'0 0.0
2014-Aug-22 11:31N 51°25' E 002°40'0 0.0
2014-Aug-22 10:25N 51°25' E 002°40'0 0.0
2014-Aug-22 09:31N 51°25' E 002°40'0 0.0
2014-Aug-22 08:25N 51°25' E 002°40'0 0.1
2014-Aug-22 07:28N 51°25' E 002°39'0 0.1
2014-Aug-22 06:31N 51°24' E 002°39'0 0.1
2014-Aug-22 05:22N 51°25' E 002°39'0 0.1
2014-Aug-22 04:31N 51°25' E 002°40'0 0.1
2014-Aug-22 03:31N 51°25' E 002°40'0 0.0
2014-Aug-22 02:31N 51°25' E 002°40'0 0.0
2014-Aug-22 01:31N 51°25' E 002°40'0 0.0
2014-Aug-22 00:25N 51°25' E 002°40'0 0.0
2014-Aug-21 23:31N 51°25' E 002°40'0 0.0
2014-Aug-21 22:31N 51°25' E 002°40'0 0.0
2014-Aug-21 21:31N 51°25' E 002°40'0 0.0
2014-Aug-21 20:31N 51°25' E 002°40'0 0.0
2014-Aug-21 19:33N 51°25' E 002°40'0 0.0
2014-Aug-21 18:34N 51°25' E 002°40'0 0.0
2014-Aug-21 17:18N 51°25' E 002°40'0 0.0
2014-Aug-21 16:34N 51°25' E 002°40'0 0.1
2014-Aug-21 15:33N 51°25' E 002°40'0 0.0
2014-Aug-21 14:27N 51°25' E 002°40'0 0.0
2014-Aug-21 13:33N 51°25' E 002°40'0 0.0
2014-Aug-21 12:33N 51°25' E 002°40'0 0.0
2014-Aug-21 11:30N 51°25' E 002°40'0 0.0
2014-Aug-21 10:33N 51°25' E 002°40'0 0.0
2014-Aug-21 09:33N 51°25' E 002°40'0 0.0
2014-Aug-21 08:30N 51°25' E 002°40'0 0.1
2014-Aug-21 07:30N 51°24' E 002°40'0 0.1
2014-Aug-21 06:33N 51°24' E 002°39'0 0.1
2014-Aug-21 05:32N 51°25' E 002°39'8 7.5
2014-Aug-21 04:30N 51°22' E 002°28'9 9.1
2014-Aug-21 03:31N 51°18' E 002°14'1010.6
2014-Aug-21 02:33N 51°23' E 001°60'1110.6
2014-Aug-21 01:33N 51°32' E 002°07'1211.8
2014-Aug-21 00:33N 51°42' E 002°19'  
2014-Aug-15 18:23N 58°36' E 004°55'1011.6
2014-Aug-15 17:33N 58°29' E 005°08'1211.4
2014-Aug-15 16:32N 58°21' E 005°25'1111.2
2014-Aug-15 15:33N 58°14' E 005°40'1111.2
2014-Aug-15 14:33N 58°06' E 005°56'13312.1
2014-Aug-15 03:33N 57°50' E 010°06'1312.8
2014-Aug-15 02:33N 57°51' E 010°30'1111.0
2014-Aug-15 01:33N 57°43' E 010°46'3 1.1
2014-Aug-14 22:32N 57°41' E 010°41'0 0.0
2014-Aug-14 21:32N 57°41' E 010°41'0 0.0
2014-Aug-14 18:32N 57°41' E 010°41'3 2.6
2014-Aug-14 17:33N 57°40' E 010°45'1313.5
2014-Aug-14 16:33N 57°34' E 011°07'1313.1
2014-Aug-14 15:33N 57°26' E 011°27'1414.1
2014-Aug-14 14:33N 57°13' E 011°36'1414.2
2014-Aug-14 13:34N 56°59' E 011°45'1414.1
2014-Aug-14 12:33N 56°46' E 011°53'1414.0
2014-Aug-14 11:33N 56°33' E 011°59'1313.2
2014-Aug-14 10:33N 56°22' E 012°12'1313.3
2014-Aug-14 09:33N 56°11' E 012°27'1110.9
2014-Aug-14 08:33N 56°03' E 012°40'1212.4
2014-Aug-14 07:33N 55°50' E 012°42'1312.8
2014-Aug-14 06:33N 55°38' E 012°42'10 9.9
2014-Aug-14 05:34N 55°28' E 012°42'1111.4
2014-Aug-14 04:33N 55°17' E 012°48'1313.3
2014-Aug-14 03:33N 55°15' E 013°11'1613.5
2014-Aug-14 02:20N 55°14' E 013°40'2212.2
2014-Aug-14 00:30N 55°12' E 014°19'1111.3
2014-Aug-13 23:33N 55°15' E 014°36'1110.9
2014-Aug-13 22:33N 55°18' E 014°55'1010.0
2014-Aug-13 21:34N 55°16' E 015°13'1413.8
2014-Aug-13 20:33N 55°16' E 015°37'6913.8
2014-Aug-13 15:33N 55°13' E 017°38'1313.3
2014-Aug-13 14:33N 55°11' E 018°01'1211.6
2014-Aug-13 13:33N 55°07' E 018°20'1212.0
2014-Aug-13 12:33N 54°60' E 018°36'1212.0
2014-Aug-13 11:33N 54°52' E 018°52'1010.2
2014-Aug-13 10:33N 54°42' E 018°58'1111.5
2014-Aug-13 09:33N 54°32' E 018°49'4 4.5
2014-Aug-13 08:33N 54°31' E 018°42'0 0.0
2014-Aug-13 07:33N 54°31' E 018°42'0 0.0
2014-Aug-13 06:33N 54°31' E 018°42'0 0.1
2014-Aug-13 05:33N 54°31' E 018°42'0 0.0
2014-Aug-13 04:33N 54°31' E 018°42'0 0.0
2014-Aug-13 03:33N 54°31' E 018°42'  

Dump ship's entire track history